Adamsdale, Pennsylvania
Current Conditions -  °F | °C
As of 9:54 PM on Monday 20 Oct 2014 (Local Time) from KRDG Reporting Station
Overcast Overcast  
Wind Chill: 57°   Ceiling: 9000
Heat Index: 57°   Visibility: 10mi
Dew Point: 44°   Wind: 0mph
Humidity: 62%   Direction: NA
Pressure: 29.94"   Gusts: NA
Location:  40.6412°N, 76.1672°W
Report Text: KRDG 210154Z AUTO 00000KT 10SM OVC090 14/07 A2994 RMK AO2 SLP145 T01390067
Loading
Personal Weather Stations






























Interactive Weather Map
Tropical Storm Tracking
New forecast layout! Learn more

10-Day Weather Forecast

Advertisements
Track Severe Weather on mobile